Time;durP1;ratioP1;P1;durP2;ratioP2;P2;SDS_P1;SDS_P2;PMS_P1;PMS_P2;Temp;Humidity;BMP_temperature;BMP_pressure;BME280_temperature;BME280_humidity;BME280_pressure;Samples;Min_cycle;Max_cycle;Signal;HPM_P1;HPM_P2
2022/03/19 00:00:05;;;;;;;;;;;;;;;;;;349925;28;1726;-84
2022/03/19 00:00:15;;;;;;;;;;;;;;;;;;349985;28;1284;-85
2022/03/19 00:00:25;;;;;;;;;;;;;;;;;;349999;28;813;-85
2022/03/19 00:00:35;;;;;;;;;;;;;;;;;;350034;28;916;-85
2022/03/19 00:00:46;;;;;;;;;;;;;;;;;;350015;28;1028;-85
2022/03/19 00:00:58;;;;;;;;;;;;;;;;;;350042;28;794;-85
2022/03/19 00:01:10;;;;;;;;;;;;;;;;;;349931;28;1623;-85
2022/03/19 00:01:20;;;;;;;;;;;;;;;;;;349939;28;1768;-85
2022/03/19 00:01:30;;;;;;;;;;;;;;;;;;349963;28;1141;-85
2022/03/19 00:01:40;;;;;;;;;;;;;;;;;;350029;28;813;-85
2022/03/19 00:01:50;;;;;;;;;;;;;;;;;;350031;28;983;-85
2022/03/19 00:02:01;;;;;;;;;;;;;;;;;;350034;28;1007;-86
2022/03/19 00:02:11;;;;;;;;;;;;;;;;;;350056;28;963;-85
2022/03/19 00:02:21;;;;;;;;;;;;;;;;;;350061;28;960;-85
2022/03/19 00:02:32;;;;;;;;;;;;;;;;;;350023;28;980;-86
2022/03/19 00:02:43;;;;;;;;;;;;;;;;;;350058;28;999;-85
2022/03/19 00:02:54;;;;;;;;;;;;;;;;;;350053;28;1043;-85
2022/03/19 00:03:04;;;;;;;;;;;;;;;;;;350056;28;940;-85
2022/03/19 00:03:15;;;;;;;;;;;;;;;;;;350023;28;1627;-85
2022/03/19 00:03:25;;;;;;;;;;;;;;;;;;349981;28;1792;-85
2022/03/19 00:03:35;;;;;;;;;;;;;;;;;;350007;28;972;-85
2022/03/19 00:03:45;;;;;;;;;;;;;;;;;;350052;28;842;-86
2022/03/19 00:03:56;;;;;;;;;;;;;;;;;;350058;28;909;-86
2022/03/19 00:04:06;;;;;;;;;;;;;;;;;;350016;28;916;-86
2022/03/19 00:04:16;;;;;;;;;;;;;;;;;;350558;28;1616;-85
2022/03/19 00:04:26;;;;;;;;;;;;;;;;;;351213;28;1812;-85
2022/03/19 00:04:37;;;;;;;;;;;;;;;;;;349989;28;1007;-85
2022/03/19 00:04:47;;;;;;;;;;;;;;;;;;349403;28;1767;-84
2022/03/19 00:04:57;;;;;;;;;;;;;;;;;;351445;28;871;-85
2022/03/19 00:05:08;;;;;;;;;;;;;;;;;;351436;28;940;-85
2022/03/19 00:05:19;;;;;;;;;;;;;;;;;;351462;28;928;-85
2022/03/19 00:05:29;;;;;;;;;;;;;;;;;;351425;28;1011;-85
2022/03/19 00:05:40;;;;;;;;;;;;;;;;;;351410;28;971;-85
2022/03/19 00:05:50;;;;;;;;;;;;;;;;;;351421;28;856;-85
2022/03/19 00:06:00;;;;;;;;;;;;;;;;;;351453;28;1015;-85
2022/03/19 00:06:10;;;;;;;;;;;;;;;;;;351414;28;934;-85
2022/03/19 00:06:21;;;;;;;;;;;;;;;;;;350001;28;1611;-85
2022/03/19 00:06:36;;;;;;;;;;;;;;;;;;350052;28;1002;-85
2022/03/19 00:06:47;;;;;;;;;;;;;;;;;;350030;28;889;-85
2022/03/19 00:06:57;;;;;;;;;;;;;;;;;;349955;28;1953;-85
2022/03/19 00:07:07;;;;;;;;;;;;;;;;;;350076;28;941;-85
2022/03/19 00:07:18;;;;;;;;;;;;;;;;;;350084;28;814;-85
2022/03/19 00:07:28;;;;;;;;;;;;;;;;;;349667;28;1613;-84
2022/03/19 00:07:41;;;;;;;;;;;;;;;;;;350646;28;1628;-85
2022/03/19 00:07:52;;;;;;;;;;;;;;;;;;351392;28;800;-85
2022/03/19 00:08:02;;;;;;;;;;;;;;;;;;351419;28;908;-85
2022/03/19 00:08:16;;;;;;;;;;;;;;;;;;351463;28;954;-85
2022/03/19 00:08:27;;;;;;;;;;;;;;;;;;351363;28;991;-85
2022/03/19 00:08:37;;;;;;;;;;;;;;;;;;351417;28;1040;-85
2022/03/19 00:08:48;;;;;;;;;;;;;;;;;;351365;28;1691;-85
2022/03/19 00:08:58;;;;;;;;;;;;;;;;;;350931;28;1750;-85
2022/03/19 00:09:09;;;;;;;;;;;;;;;;;;350224;28;1740;-85
2022/03/19 00:09:19;;;;;;;;;;;;;;;;;;350064;28;929;-85
2022/03/19 00:09:29;;;;;;;;;;;;;;;;;;349991;28;873;-85
2022/03/19 00:09:40;;;;;;;;;;;;;;;;;;349992;28;1022;-85
2022/03/19 00:09:50;;;;;;;;;;;;;;;;;;350030;28;963;-85
2022/03/19 00:10:01;;;;;;;;;;;;;;;;;;349986;28;1004;-85
2022/03/19 00:10:11;;;;;;;;;;;;;;;;;;350087;28;845;-85
2022/03/19 00:10:22;;;;;;;;;;;;;;;;;;350202;28;1628;-84
2022/03/19 00:10:32;;;;;;;;;;;;;;;;;;349876;28;1624;-85
2022/03/19 00:10:43;;;;;;;;;;;;;;;;;;350064;28;896;-85
2022/03/19 00:10:53;;;;;;;;;;;;;;;;;;350022;28;940;-85
2022/03/19 00:11:03;;;;;;;;;;;;;;;;;;350016;28;857;-85
2022/03/19 00:11:14;;;;;;;;;;;;;;;;;;350033;28;858;-85
2022/03/19 00:11:24;;;;;;;;;;;;;;;;;;350095;28;917;-85
2022/03/19 00:11:34;;;;;;;;;;;;;;;;;;349982;28;957;-85
2022/03/19 00:11:45;;;;;;;;;;;;;;;;;;349998;28;1023;-85
2022/03/19 00:11:55;;;;;;;;;;;;;;;;;;349983;28;977;-85
2022/03/19 00:12:06;;;;;;;;;;;;;;;;;;349944;28;988;-85
2022/03/19 00:12:16;;;;;;;;;;;;;;;;;;349957;28;1195;-85
2022/03/19 00:12:27;;;;;;;;;;;;;;;;;;349927;28;1445;-85
2022/03/19 00:12:41;;;;;;;;;;;;;;;;;;349962;28;856;-85
2022/03/19 00:12:51;;;;;;;;;;;;;;;;;;350037;28;1024;-85
2022/03/19 00:13:01;;;;;;;;;;;;;;;;;;350087;28;995;-85
2022/03/19 00:13:12;;;;;;;;;;;;;;;;;;350011;28;916;-85
2022/03/19 00:13:22;;;;;;;;;;;;;;;;;;350076;28;889;-85
2022/03/19 00:13:33;;;;;;;;;;;;;;;;;;349914;28;1139;-85
2022/03/19 00:13:43;;;;;;;;;;;;;;;;;;350045;28;947;-85
2022/03/19 00:13:53;;;;;;;;;;;;;;;;;;349997;28;1019;-85
2022/03/19 00:14:04;;;;;;;;;;;;;;;;;;350077;28;896;-85
2022/03/19 00:14:14;;;;;;;;;;;;;;;;;;349938;28;1055;-85
2022/03/19 00:14:24;;;;;;;;;;;;;;;;;;349996;28;1717;-85
2022/03/19 00:14:35;;;;;;;;;;;;;;;;;;350093;28;809;-85
2022/03/19 00:14:45;;;;;;;;;;;;;;;;;;349953;28;782;-85
2022/03/19 00:14:55;;;;;;;;;;;;;;;;;;349944;28;933;-85
2022/03/19 00:15:06;;;;;;;;;;;;;;;;;;349947;28;1125;-85
2022/03/19 00:15:17;;;;;;;;;;;;;;;;;;349805;28;1092;-85
2022/03/19 00:15:28;;;;;;;;;;;;;;;;;;349851;28;925;-85
2022/03/19 00:15:39;;;;;;;;;;;;;;;;;;350040;28;908;-85
2022/03/19 00:15:50;;;;;;;;;;;;;;;;;;350024;28;782;-85
2022/03/19 00:16:00;;;;;;;;;;;;;;;;;;350009;28;977;-85
2022/03/19 00:16:10;;;;;;;;;;;;;;;;;;350001;28;1004;-85
2022/03/19 00:16:21;;;;;;;;;;;;;;;;;;349910;28;1703;-86
2022/03/19 00:16:32;;;;;;;;;;;;;;;;;;349978;28;1835;-85
2022/03/19 00:16:42;;;;;;;;;;;;;;;;;;350059;28;821;-85
2022/03/19 00:16:53;;;;;;;;;;;;;;;;;;349963;28;1039;-85
2022/03/19 00:17:03;;;;;;;;;;;;;;;;;;349997;28;937;-85
2022/03/19 00:17:13;;;;;;;;;;;;;;;;;;349986;28;1083;-85
2022/03/19 00:17:23;;;;;;;;;;;;;;;;;;349935;28;1007;-85
2022/03/19 00:17:34;;;;;;;;;;;;;;;;;;351287;28;1327;-85
2022/03/19 00:17:44;;;;;;;;;;;;;;;;;;352843;28;972;-85
2022/03/19 00:17:57;;;;;;;;;;;;;;;;;;352853;28;916;-85
2022/03/19 00:18:07;;;;;;;;;;;;;;;;;;352852;28;881;-85
2022/03/19 00:18:17;;;;;;;;;;;;;;;;;;352872;28;781;-85
2022/03/19 00:18:27;;;;;;;;;;;;;;;;;;350565;28;1484;-85
2022/03/19 00:18:38;;;;;;;;;;;;;;;;;;350043;28;968;-85
2022/03/19 00:18:48;;;;;;;;;;;;;;;;;;351205;28;1342;-85
2022/03/19 00:18:59;;;;;;;;;;;;;;;;;;351295;28;881;-84
2022/03/19 00:19:09;;;;;;;;;;;;;;;;;;351374;28;963;-86
2022/03/19 00:19:19;;;;;;;;;;;;;;;;;;351299;28;976;-86
2022/03/19 00:19:30;;;;;;;;;;;;;;;;;;351356;28;933;-85
2022/03/19 00:19:40;;;;;;;;;;;;;;;;;;351305;28;917;-85
2022/03/19 00:19:50;;;;;;;;;;;;;;;;;;351362;28;841;-85
2022/03/19 00:20:00;;;;;;;;;;;;;;;;;;351298;28;908;-85
2022/03/19 00:20:11;;;;;;;;;;;;;;;;;;351357;28;849;-84
2022/03/19 00:20:21;;;;;;;;;;;;;;;;;;351306;28;888;-84
2022/03/19 00:20:32;;;;;;;;;;;;;;;;;;351376;28;889;-84
2022/03/19 00:20:43;;;;;;;;;;;;;;;;;;350815;28;1019;-84
2022/03/19 00:20:53;;;;;;;;;;;;;;;;;;350048;28;861;-84
2022/03/19 00:21:04;;;;;;;;;;;;;;;;;;349913;28;979;-84
2022/03/19 00:21:15;;;;;;;;;;;;;;;;;;349867;28;1706;-84
2022/03/19 00:21:25;;;;;;;;;;;;;;;;;;350030;28;999;-84
2022/03/19 00:21:37;;;;;;;;;;;;;;;;;;350019;28;999;-84
2022/03/19 00:21:47;;;;;;;;;;;;;;;;;;349976;28;925;-85
2022/03/19 00:21:57;;;;;;;;;;;;;;;;;;349927;28;1041;-84
2022/03/19 00:22:07;;;;;;;;;;;;;;;;;;349986;28;940;-84
2022/03/19 00:22:18;;;;;;;;;;;;;;;;;;349909;28;1671;-84
2022/03/19 00:22:28;;;;;;;;;;;;;;;;;;349996;28;936;-84
2022/03/19 00:22:38;;;;;;;;;;;;;;;;;;350045;28;991;-84
2022/03/19 00:22:48;;;;;;;;;;;;;;;;;;350039;28;988;-84
2022/03/19 00:22:59;;;;;;;;;;;;;;;;;;349962;28;1042;-84
2022/03/19 00:23:09;;;;;;;;;;;;;;;;;;349947;28;905;-84
2022/03/19 00:23:19;;;;;;;;;;;;;;;;;;350033;28;849;-84
2022/03/19 00:23:30;;;;;;;;;;;;;;;;;;349996;28;984;-85
2022/03/19 00:23:40;;;;;;;;;;;;;;;;;;350065;28;786;-85
2022/03/19 00:23:51;;;;;;;;;;;;;;;;;;350007;28;871;-84
2022/03/19 00:24:02;;;;;;;;;;;;;;;;;;350203;28;1549;-84
2022/03/19 00:24:12;;;;;;;;;;;;;;;;;;351029;28;1716;-84
2022/03/19 00:24:23;;;;;;;;;;;;;;;;;;349975;28;1696;-84
2022/03/19 00:24:34;;;;;;;;;;;;;;;;;;349960;28;1066;-84
2022/03/19 00:24:45;;;;;;;;;;;;;;;;;;350009;28;1000;-84
2022/03/19 00:24:55;;;;;;;;;;;;;;;;;;350100;28;794;-84
2022/03/19 00:25:08;;;;;;;;;;;;;;;;;;350031;28;920;-84
2022/03/19 00:25:18;;;;;;;;;;;;;;;;;;349917;28;1009;-84
2022/03/19 00:25:28;;;;;;;;;;;;;;;;;;350063;28;858;-84
2022/03/19 00:25:39;;;;;;;;;;;;;;;;;;350034;28;925;-84
2022/03/19 00:25:49;;;;;;;;;;;;;;;;;;349997;28;904;-84
2022/03/19 00:25:59;;;;;;;;;;;;;;;;;;349945;28;999;-84
2022/03/19 00:26:10;;;;;;;;;;;;;;;;;;350002;28;936;-84
2022/03/19 00:26:21;;;;;;;;;;;;;;;;;;350102;28;1651;-84
2022/03/19 00:26:32;;;;;;;;;;;;;;;;;;351342;28;968;-84
2022/03/19 00:26:42;;;;;;;;;;;;;;;;;;351449;28;842;-84
2022/03/19 00:26:52;;;;;;;;;;;;;;;;;;351316;28;983;-84
2022/03/19 00:27:03;;;;;;;;;;;;;;;;;;351371;28;1910;-84
2022/03/19 00:27:13;;;;;;;;;;;;;;;;;;351372;28;976;-84
2022/03/19 00:27:25;;;;;;;;;;;;;;;;;;351375;28;881;-84
2022/03/19 00:27:35;;;;;;;;;;;;;;;;;;351394;28;1050;-84
2022/03/19 00:27:46;;;;;;;;;;;;;;;;;;351371;28;1133;-84
2022/03/19 00:27:56;;;;;;;;;;;;;;;;;;351407;28;925;-84
2022/03/19 00:28:07;;;;;;;;;;;;;;;;;;351446;28;929;-84
2022/03/19 00:28:18;;;;;;;;;;;;;;;;;;351380;28;955;-84
2022/03/19 00:28:29;;;;;;;;;;;;;;;;;;350196;28;1685;-84
2022/03/19 00:28:40;;;;;;;;;;;;;;;;;;350000;28;929;-84
2022/03/19 00:28:50;;;;;;;;;;;;;;;;;;350040;28;948;-84
2022/03/19 00:29:00;;;;;;;;;;;;;;;;;;350007;28;948;-84
2022/03/19 00:29:10;;;;;;;;;;;;;;;;;;349983;28;800;-84
2022/03/19 00:29:21;;;;;;;;;;;;;;;;;;349916;28;913;-84
2022/03/19 00:29:31;;;;;;;;;;;;;;;;;;350043;28;846;-84
2022/03/19 00:29:41;;;;;;;;;;;;;;;;;;350002;28;972;-84
2022/03/19 00:29:52;;;;;;;;;;;;;;;;;;350057;28;1015;-84
2022/03/19 00:30:03;;;;;;;;;;;;;;;;;;349998;28;886;-84
2022/03/19 00:30:13;;;;;;;;;;;;;;;;;;350013;28;801;-84
2022/03/19 00:30:23;;;;;;;;;;;;;;;;;;350006;28;995;-84
2022/03/19 00:30:34;;;;;;;;;;;;;;;;;;350000;28;1016;-84
2022/03/19 00:30:44;;;;;;;;;;;;;;;;;;349966;28;976;-84
2022/03/19 00:30:55;;;;;;;;;;;;;;;;;;349988;28;862;-84
2022/03/19 00:31:05;;;;;;;;;;;;;;;;;;350047;28;972;-84
2022/03/19 00:31:15;;;;;;;;;;;;;;;;;;350006;28;802;-84
2022/03/19 00:31:25;;;;;;;;;;;;;;;;;;349840;28;1721;-84
2022/03/19 00:31:36;;;;;;;;;;;;;;;;;;350576;28;1854;-84
2022/03/19 00:31:47;;;;;;;;;;;;;;;;;;351379;28;972;-84
2022/03/19 00:31:57;;;;;;;;;;;;;;;;;;351393;28;972;-84
2022/03/19 00:32:07;;;;;;;;;;;;;;;;;;350001;28;1827;-84
2022/03/19 00:32:18;;;;;;;;;;;;;;;;;;349964;28;996;-84
2022/03/19 00:32:29;;;;;;;;;;;;;;;;;;350032;28;821;-84
2022/03/19 00:32:39;;;;;;;;;;;;;;;;;;349913;28;1129;-84
2022/03/19 00:32:49;;;;;;;;;;;;;;;;;;350040;28;913;-84
2022/03/19 00:32:59;;;;;;;;;;;;;;;;;;349961;28;837;-84
2022/03/19 00:33:09;;;;;;;;;;;;;;;;;;349997;28;984;-84
2022/03/19 00:33:21;;;;;;;;;;;;;;;;;;350021;28;984;-84
2022/03/19 00:33:31;;;;;;;;;;;;;;;;;;349917;28;1568;-84
2022/03/19 00:33:41;;;;;;;;;;;;;;;;;;349940;28;1051;-84
2022/03/19 00:33:52;;;;;;;;;;;;;;;;;;350035;28;1000;-84
2022/03/19 00:34:02;;;;;;;;;;;;;;;;;;350037;28;913;-84
2022/03/19 00:34:12;;;;;;;;;;;;;;;;;;349961;28;865;-84
2022/03/19 00:34:22;;;;;;;;;;;;;;;;;;349971;28;972;-84
2022/03/19 00:34:33;;;;;;;;;;;;;;;;;;350014;28;1035;-84
2022/03/19 00:34:43;;;;;;;;;;;;;;;;;;349949;28;976;-84
2022/03/19 00:34:53;;;;;;;;;;;;;;;;;;349963;28;1572;-84
2022/03/19 00:35:03;;;;;;;;;;;;;;;;;;351380;28;901;-84
2022/03/19 00:35:15;;;;;;;;;;;;;;;;;;351345;28;985;-84
2022/03/19 00:35:25;;;;;;;;;;;;;;;;;;351407;28;1185;-84
2022/03/19 00:35:36;;;;;;;;;;;;;;;;;;351378;28;901;-84
2022/03/19 00:35:46;;;;;;;;;;;;;;;;;;351358;28;920;-84
2022/03/19 00:35:56;;;;;;;;;;;;;;;;;;351431;28;790;-84
2022/03/19 00:36:06;;;;;;;;;;;;;;;;;;349983;28;1698;-84
2022/03/19 00:36:16;;;;;;;;;;;;;;;;;;350809;28;1807;-84
2022/03/19 00:36:27;;;;;;;;;;;;;;;;;;351391;28;778;-84
2022/03/19 00:36:37;;;;;;;;;;;;;;;;;;351356;28;1031;-84
2022/03/19 00:36:49;;;;;;;;;;;;;;;;;;350351;28;1517;-84
2022/03/19 00:37:00;;;;;;;;;;;;;;;;;;351431;28;900;-84
2022/03/19 00:37:10;;;;;;;;;;;;;;;;;;351453;28;835;-84
2022/03/19 00:37:20;;;;;;;;;;;;;;;;;;351431;28;921;-84
2022/03/19 00:37:32;;;;;;;;;;;;;;;;;;351370;28;912;-84
2022/03/19 00:37:43;;;;;;;;;;;;;;;;;;351042;28;1549;-84
2022/03/19 00:37:53;;;;;;;;;;;;;;;;;;349848;28;1756;-85
2022/03/19 00:38:04;;;;;;;;;;;;;;;;;;350319;28;1642;-84
2022/03/19 00:38:14;;;;;;;;;;;;;;;;;;349968;28;980;-84
2022/03/19 00:38:25;;;;;;;;;;;;;;;;;;350056;28;856;-84
2022/03/19 00:38:35;;;;;;;;;;;;;;;;;;350008;28;1028;-84
2022/03/19 00:38:45;;;;;;;;;;;;;;;;;;349968;28;1045;-84
2022/03/19 00:38:56;;;;;;;;;;;;;;;;;;349967;28;909;-84
2022/03/19 00:39:06;;;;;;;;;;;;;;;;;;349990;28;1019;-84
2022/03/19 00:39:16;;;;;;;;;;;;;;;;;;349999;28;1004;-85
2022/03/19 00:39:26;;;;;;;;;;;;;;;;;;349990;28;972;-84
2022/03/19 00:39:37;;;;;;;;;;;;;;;;;;349929;28;1132;-84
2022/03/19 00:39:47;;;;;;;;;;;;;;;;;;350597;28;1612;-84
2022/03/19 00:39:57;;;;;;;;;;;;;;;;;;351384;28;1075;-84
2022/03/19 00:40:08;;;;;;;;;;;;;;;;;;350530;28;1556;-84
2022/03/19 00:40:19;;;;;;;;;;;;;;;;;;350709;28;1697;-84
2022/03/19 00:40:29;;;;;;;;;;;;;;;;;;350831;28;1780;-84
2022/03/19 00:40:39;;;;;;;;;;;;;;;;;;350186;28;1826;-84
2022/03/19 00:40:51;;;;;;;;;;;;;;;;;;349947;28;1075;-84
2022/03/19 00:41:03;;;;;;;;;;;;;;;;;;349987;28;879;-84
2022/03/19 00:41:13;;;;;;;;;;;;;;;;;;350462;28;1585;-85
2022/03/19 00:41:23;;;;;;;;;;;;;;;;;;350272;28;1729;-84
2022/03/19 00:41:34;;;;;;;;;;;;;;;;;;351331;28;979;-84
2022/03/19 00:41:44;;;;;;;;;;;;;;;;;;351337;28;953;-84
2022/03/19 00:41:54;;;;;;;;;;;;;;;;;;351357;28;1039;-84
2022/03/19 00:42:05;;;;;;;;;;;;;;;;;;351052;28;1698;-83
2022/03/19 00:42:15;;;;;;;;;;;;;;;;;;350951;28;1748;-84
2022/03/19 00:42:25;;;;;;;;;;;;;;;;;;351410;28;939;-84
2022/03/19 00:42:36;;;;;;;;;;;;;;;;;;351306;28;893;-84
2022/03/19 00:42:48;;;;;;;;;;;;;;;;;;351403;28;822;-84
2022/03/19 00:42:58;;;;;;;;;;;;;;;;;;351426;28;1003;-84
2022/03/19 00:43:08;;;;;;;;;;;;;;;;;;351428;28;786;-84
2022/03/19 00:43:21;;;;;;;;;;;;;;;;;;351364;28;955;-84
2022/03/19 00:43:32;;;;;;;;;;;;;;;;;;351351;28;1200;-84
2022/03/19 00:43:43;;;;;;;;;;;;;;;;;;351088;28;1650;-84
2022/03/19 00:43:53;;;;;;;;;;;;;;;;;;351350;28;920;-84
2022/03/19 00:44:03;;;;;;;;;;;;;;;;;;351337;28;920;-84
2022/03/19 00:44:14;;;;;;;;;;;;;;;;;;351384;28;1023;-84
2022/03/19 00:44:24;;;;;;;;;;;;;;;;;;351395;28;951;-84
2022/03/19 00:44:34;;;;;;;;;;;;;;;;;;351407;28;913;-84
2022/03/19 00:44:45;;;;;;;;;;;;;;;;;;351399;28;872;-84
2022/03/19 00:44:55;;;;;;;;;;;;;;;;;;351322;28;967;-85
2022/03/19 00:45:05;;;;;;;;;;;;;;;;;;351401;28;1686;-84
2022/03/19 00:45:16;;;;;;;;;;;;;;;;;;350142;28;1769;-84
2022/03/19 00:45:27;;;;;;;;;;;;;;;;;;350000;28;980;-85
2022/03/19 00:45:37;;;;;;;;;;;;;;;;;;349941;28;928;-84
2022/03/19 00:45:47;;;;;;;;;;;;;;;;;;349992;28;905;-84
2022/03/19 00:45:58;;;;;;;;;;;;;;;;;;349863;28;988;-84
2022/03/19 00:46:08;;;;;;;;;;;;;;;;;;350028;28;856;-84
2022/03/19 00:46:19;;;;;;;;;;;;;;;;;;349963;28;979;-84
2022/03/19 00:46:29;;;;;;;;;;;;;;;;;;349942;28;988;-84
2022/03/19 00:46:40;;;;;;;;;;;;;;;;;;349985;28;837;-84
2022/03/19 00:46:50;;;;;;;;;;;;;;;;;;350010;28;880;-84
2022/03/19 00:47:01;;;;;;;;;;;;;;;;;;349896;28;1906;-84
2022/03/19 00:47:11;;;;;;;;;;;;;;;;;;349942;28;1643;-84
2022/03/19 00:47:21;;;;;;;;;;;;;;;;;;349820;28;1627;-84
2022/03/19 00:47:31;;;;;;;;;;;;;;;;;;349948;28;983;-84
2022/03/19 00:47:42;;;;;;;;;;;;;;;;;;349960;28;909;-84
2022/03/19 00:47:52;;;;;;;;;;;;;;;;;;350003;28;944;-84
2022/03/19 00:48:02;;;;;;;;;;;;;;;;;;349920;28;1067;-84
2022/03/19 00:48:13;;;;;;;;;;;;;;;;;;350009;28;830;-84
2022/03/19 00:48:23;;;;;;;;;;;;;;;;;;349959;28;1028;-84
2022/03/19 00:48:33;;;;;;;;;;;;;;;;;;349959;28;901;-84
2022/03/19 00:48:44;;;;;;;;;;;;;;;;;;349955;28;1070;-84
2022/03/19 00:48:54;;;;;;;;;;;;;;;;;;349964;28;1039;-84
2022/03/19 00:49:04;;;;;;;;;;;;;;;;;;349967;28;973;-84
2022/03/19 00:49:14;;;;;;;;;;;;;;;;;;349988;28;933;-84
2022/03/19 00:49:24;;;;;;;;;;;;;;;;;;349997;28;991;-84
2022/03/19 00:49:35;;;;;;;;;;;;;;;;;;350005;28;919;-84
2022/03/19 00:49:45;;;;;;;;;;;;;;;;;;349929;28;972;-84
2022/03/19 00:49:55;;;;;;;;;;;;;;;;;;349920;28;929;-84
2022/03/19 00:50:06;;;;;;;;;;;;;;;;;;349884;28;968;-84
2022/03/19 00:50:16;;;;;;;;;;;;;;;;;;349870;28;1054;-84
2022/03/19 00:50:27;;;;;;;;;;;;;;;;;;350015;28;964;-84
2022/03/19 00:50:37;;;;;;;;;;;;;;;;;;349993;28;991;-84
2022/03/19 00:50:47;;;;;;;;;;;;;;;;;;349878;28;952;-84
2022/03/19 00:50:57;;;;;;;;;;;;;;;;;;350007;28;964;-84
2022/03/19 00:51:08;;;;;;;;;;;;;;;;;;349973;28;936;-84
2022/03/19 00:51:18;;;;;;;;;;;;;;;;;;349875;28;1674;-84
2022/03/19 00:51:28;;;;;;;;;;;;;;;;;;350016;28;917;-84
2022/03/19 00:51:39;;;;;;;;;;;;;;;;;;349967;28;932;-84
2022/03/19 00:51:49;;;;;;;;;;;;;;;;;;349978;28;1147;-85
2022/03/19 00:52:00;;;;;;;;;;;;;;;;;;349947;28;971;-84
2022/03/19 00:52:10;;;;;;;;;;;;;;;;;;349950;28;964;-84
2022/03/19 00:52:20;;;;;;;;;;;;;;;;;;349965;28;976;-84
2022/03/19 00:52:30;;;;;;;;;;;;;;;;;;349955;28;917;-84
2022/03/19 00:52:41;;;;;;;;;;;;;;;;;;349960;28;944;-84
2022/03/19 00:52:51;;;;;;;;;;;;;;;;;;349953;28;1004;-84
2022/03/19 00:53:01;;;;;;;;;;;;;;;;;;349860;28;1012;-84
2022/03/19 00:53:11;;;;;;;;;;;;;;;;;;349872;28;1015;-84
2022/03/19 00:53:21;;;;;;;;;;;;;;;;;;350984;28;1736;-84
2022/03/19 00:53:32;;;;;;;;;;;;;;;;;;351315;28;916;-84
2022/03/19 00:53:42;;;;;;;;;;;;;;;;;;351359;28;920;-84
2022/03/19 00:53:52;;;;;;;;;;;;;;;;;;351366;28;983;-84
2022/03/19 00:54:03;;;;;;;;;;;;;;;;;;351346;28;904;-84
2022/03/19 00:54:15;;;;;;;;;;;;;;;;;;351300;28;1284;-84
2022/03/19 00:54:25;;;;;;;;;;;;;;;;;;351391;28;936;-84
2022/03/19 00:54:35;;;;;;;;;;;;;;;;;;351181;28;1128;-84
2022/03/19 00:54:45;;;;;;;;;;;;;;;;;;351328;28;1021;-84
2022/03/19 00:54:56;;;;;;;;;;;;;;;;;;351397;28;984;-84
2022/03/19 00:55:07;;;;;;;;;;;;;;;;;;351327;28;925;-84
2022/03/19 00:55:17;;;;;;;;;;;;;;;;;;351412;28;956;-84
2022/03/19 00:55:28;;;;;;;;;;;;;;;;;;351383;28;928;-84
2022/03/19 00:55:38;;;;;;;;;;;;;;;;;;351367;28;865;-84
2022/03/19 00:55:48;;;;;;;;;;;;;;;;;;351369;28;928;-84
2022/03/19 00:55:59;;;;;;;;;;;;;;;;;;351428;28;852;-84
2022/03/19 00:56:09;;;;;;;;;;;;;;;;;;351363;28;944;-84
2022/03/19 00:56:19;;;;;;;;;;;;;;;;;;351044;28;1729;-83
2022/03/19 00:56:29;;;;;;;;;;;;;;;;;;352549;28;1308;-84
2022/03/19 00:56:40;;;;;;;;;;;;;;;;;;352679;28;912;-84
2022/03/19 00:56:51;;;;;;;;;;;;;;;;;;352648;28;967;-84
2022/03/19 00:57:01;;;;;;;;;;;;;;;;;;352737;28;845;-84
2022/03/19 00:57:11;;;;;;;;;;;;;;;;;;352673;28;1051;-84
2022/03/19 00:57:21;;;;;;;;;;;;;;;;;;352666;28;787;-84
2022/03/19 00:57:38;;;;;;;;;;;;;;;;;;352537;28;1149;-84
2022/03/19 00:57:48;;;;;;;;;;;;;;;;;;352621;28;976;-84
2022/03/19 00:57:59;;;;;;;;;;;;;;;;;;352731;28;1689;-84
2022/03/19 00:58:11;;;;;;;;;;;;;;;;;;352624;27;1571;-84
2022/03/19 00:58:21;;;;;;;;;;;;;;;;;;352413;28;959;-84
2022/03/19 00:58:31;;;;;;;;;;;;;;;;;;349939;28;948;-84
2022/03/19 00:58:42;;;;;;;;;;;;;;;;;;349946;28;971;-84
2022/03/19 00:58:52;;;;;;;;;;;;;;;;;;349928;28;913;-84
2022/03/19 00:59:03;;;;;;;;;;;;;;;;;;349995;28;877;-84
2022/03/19 00:59:13;;;;;;;;;;;;;;;;;;349943;28;908;-84
2022/03/19 00:59:23;;;;;;;;;;;;;;;;;;350011;28;960;-84
2022/03/19 00:59:33;;;;;;;;;;;;;;;;;;349967;28;917;-84
2022/03/19 00:59:44;;;;;;;;;;;;;;;;;;350346;28;1651;-84
2022/03/19 00:59:55;;;;;;;;;;;;;;;;;;350530;28;1760;-84
2022/03/19 01:00:06;;;;;;;;;;;;;;;;;;351403;28;940;-84
2022/03/19 01:00:19;;;;;;;;;;;;;;;;;;351305;28;953;-84
2022/03/19 01:00:29;;;;;;;;;;;;;;;;;;351335;28;1070;-84
2022/03/19 01:00:39;;;;;;;;;;;;;;;;;;351301;28;1004;-84
2022/03/19 01:00:50;;;;;;;;;;;;;;;;;;351331;28;873;-84
2022/03/19 01:01:00;;;;;;;;;;;;;;;;;;351334;28;1003;-84
2022/03/19 01:01:10;;;;;;;;;;;;;;;;;;351312;28;996;-84
2022/03/19 01:01:20;;;;;;;;;;;;;;;;;;350795;28;1501;-84
2022/03/19 01:01:31;;;;;;;;;;;;;;;;;;349974;28;909;-84
2022/03/19 01:01:41;;;;;;;;;;;;;;;;;;350002;28;790;-84
2022/03/19 01:01:51;;;;;;;;;;;;;;;;;;349868;28;1155;-84
2022/03/19 01:02:01;;;;;;;;;;;;;;;;;;349862;28;1293;-84
2022/03/19 01:02:11;;;;;;;;;;;;;;;;;;349864;28;845;-84
2022/03/19 01:02:22;;;;;;;;;;;;;;;;;;349760;28;1632;-84
2022/03/19 01:02:32;;;;;;;;;;;;;;;;;;349908;28;956;-84
2022/03/19 01:02:43;;;;;;;;;;;;;;;;;;349780;28;845;-84
2022/03/19 01:02:54;;;;;;;;;;;;;;;;;;349839;28;999;-84
2022/03/19 01:03:06;;;;;;;;;;;;;;;;;;349870;28;926;-84
2022/03/19 01:03:16;;;;;;;;;;;;;;;;;;349921;28;920;-84
2022/03/19 01:03:26;;;;;;;;;;;;;;;;;;349829;28;881;-84
2022/03/19 01:03:37;;;;;;;;;;;;;;;;;;349880;28;985;-84
2022/03/19 01:03:47;;;;;;;;;;;;;;;;;;349908;28;785;-84
2022/03/19 01:03:57;;;;;;;;;;;;;;;;;;349874;28;921;-84
2022/03/19 01:04:07;;;;;;;;;;;;;;;;;;349909;28;1082;-84
2022/03/19 01:04:17;;;;;;;;;;;;;;;;;;349966;28;881;-84
2022/03/19 01:04:28;;;;;;;;;;;;;;;;;;349924;28;980;-84
2022/03/19 01:04:38;;;;;;;;;;;;;;;;;;349996;28;786;-84
2022/03/19 01:04:48;;;;;;;;;;;;;;;;;;349665;28;1761;-84
2022/03/19 01:04:58;;;;;;;;;;;;;;;;;;350829;28;1519;-84
2022/03/19 01:05:10;;;;;;;;;;;;;;;;;;351054;28;1529;-83
2022/03/19 01:05:21;;;;;;;;;;;;;;;;;;351165;28;987;-84
2022/03/19 01:05:31;;;;;;;;;;;;;;;;;;351401;28;849;-84
2022/03/19 01:05:42;;;;;;;;;;;;;;;;;;351158;28;1028;-84
2022/03/19 01:05:52;;;;;;;;;;;;;;;;;;351359;28;928;-84
2022/03/19 01:06:02;;;;;;;;;;;;;;;;;;351368;28;833;-84
2022/03/19 01:06:13;;;;;;;;;;;;;;;;;;351374;28;821;-84
2022/03/19 01:06:23;;;;;;;;;;;;;;;;;;350467;28;1484;-84
2022/03/19 01:06:34;;;;;;;;;;;;;;;;;;349972;28;936;-84
2022/03/19 01:06:44;;;;;;;;;;;;;;;;;;349911;28;908;-84
2022/03/19 01:06:54;;;;;;;;;;;;;;;;;;349960;28;775;-84
2022/03/19 01:07:04;;;;;;;;;;;;;;;;;;349830;28;1909;-84
2022/03/19 01:07:14;;;;;;;;;;;;;;;;;;349942;28;976;-84
2022/03/19 01:07:25;;;;;;;;;;;;;;;;;;349994;28;913;-84
2022/03/19 01:07:41;;;;;;;;;;;;;;;;;;350009;28;916;-84
2022/03/19 01:07:55;;;;;;;;;;;;;;;;;;349935;28;809;-84
2022/03/19 01:08:05;;;;;;;;;;;;;;;;;;349957;28;893;-84
2022/03/19 01:08:15;;;;;;;;;;;;;;;;;;349993;28;808;-84
2022/03/19 01:08:26;;;;;;;;;;;;;;;;;;349901;28;1647;-84
2022/03/19 01:08:36;;;;;;;;;;;;;;;;;;349991;28;936;-84
2022/03/19 01:08:46;;;;;;;;;;;;;;;;;;349987;28;865;-84
2022/03/19 01:08:57;;;;;;;;;;;;;;;;;;349895;28;924;-85
2022/03/19 01:09:07;;;;;;;;;;;;;;;;;;349990;28;842;-85
2022/03/19 01:09:17;;;;;;;;;;;;;;;;;;349986;28;806;-84
2022/03/19 01:09:27;;;;;;;;;;;;;;;;;;349925;28;925;-84
2022/03/19 01:09:37;;;;;;;;;;;;;;;;;;349938;28;1713;-84
2022/03/19 01:09:48;;;;;;;;;;;;;;;;;;349948;28;1793;-83
2022/03/19 01:09:58;;;;;;;;;;;;;;;;;;349903;28;913;-84
2022/03/19 01:10:09;;;;;;;;;;;;;;;;;;349968;28;885;-84
2022/03/19 01:10:21;;;;;;;;;;;;;;;;;;349985;28;856;-84
2022/03/19 01:10:31;;;;;;;;;;;;;;;;;;349952;28;781;-84
2022/03/19 01:10:42;;;;;;;;;;;;;;;;;;350003;28;857;-84
2022/03/19 01:10:52;;;;;;;;;;;;;;;;;;349930;28;1086;-84
2022/03/19 01:11:03;;;;;;;;;;;;;;;;;;349870;28;857;-84
2022/03/19 01:11:13;;;;;;;;;;;;;;;;;;349931;28;964;-84
2022/03/19 01:11:24;;;;;;;;;;;;;;;;;;349822;28;1861;-84
2022/03/19 01:11:34;;;;;;;;;;;;;;;;;;349902;28;880;-84
2022/03/19 01:11:45;;;;;;;;;;;;;;;;;;349984;28;968;-84
2022/03/19 01:11:55;;;;;;;;;;;;;;;;;;349842;28;1715;-85
2022/03/19 01:12:06;;;;;;;;;;;;;;;;;;349925;28;910;-84
2022/03/19 01:12:16;;;;;;;;;;;;;;;;;;350006;28;822;-84
2022/03/19 01:12:26;;;;;;;;;;;;;;;;;;349984;28;952;-84
2022/03/19 01:12:36;;;;;;;;;;;;;;;;;;349943;28;975;-84
2022/03/19 01:12:47;;;;;;;;;;;;;;;;;;349987;28;936;-84
2022/03/19 01:12:58;;;;;;;;;;;;;;;;;;349916;28;921;-84
2022/03/19 01:13:08;;;;;;;;;;;;;;;;;;349947;28;923;-84
2022/03/19 01:13:19;;;;;;;;;;;;;;;;;;349444;28;1404;-84
2022/03/19 01:13:29;;;;;;;;;;;;;;;;;;349912;28;1624;-84
2022/03/19 01:13:39;;;;;;;;;;;;;;;;;;349942;28;976;-84
2022/03/19 01:13:50;;;;;;;;;;;;;;;;;;350005;28;838;-85
2022/03/19 01:14:01;;;;;;;;;;;;;;;;;;350488;28;1612;-85
2022/03/19 01:14:11;;;;;;;;;;;;;;;;;;350003;28;1780;-84
2022/03/19 01:14:22;;;;;;;;;;;;;;;;;;351306;28;936;-84
2022/03/19 01:14:32;;;;;;;;;;;;;;;;;;351387;28;995;-84
2022/03/19 01:14:42;;;;;;;;;;;;;;;;;;351378;28;908;-84
2022/03/19 01:14:52;;;;;;;;;;;;;;;;;;351362;28;945;-84
2022/03/19 01:15:03;;;;;;;;;;;;;;;;;;351371;28;940;-84
2022/03/19 01:15:15;;;;;;;;;;;;;;;;;;351281;28;960;-84